Disclaimer

Please do not use the information listed here in-flight or in-navigation, as they are not provided to us by the airports but are provided by volunteers, so they might be outdated.

Search


Regions


Airport information page

Radio informations:
INDORE TWR - 122.8 MHz
INDORE APP - 122.3 MHz

Airport informations:
Latitude: 22° 43' 18.43" N
Longitude: 075° 48' 03.91" E
Elevation: 1850 feet - 564 meters
Operating hours: N/A
Operating agency: Civil government, landing fees and diplomatic clearance may be required
Timezone: UTC+5:30
Fuel: Jet A1, without icing nhibitor.

100/130 octane gasoline, leaded, MIL-L-5572F (GREEN)

Runway information:
07/25 - 7480 x 148 feet< - >2280 x 45 meters

Recent METARs:
VAID 121800Z 18003KT 5000 HZ NSC 19/09 Q1015 NOSIG
VAID 121800Z 18003KT 5000 HZ NSC 19/09 Q1015 NOSIG
VAID 122100Z 18002KT 5000 HZ NSC 18/08 Q1014 NOSIG

Airport on the map: